HELX

Luxor International Airport

Luxor, Egypt
TAF HELX 171700Z 1718/1824 35005G15KT 6000 NSC TEMPO 1718/1720 VRB03KT 3000 HZ
Issued Valid From Valid To
Jan-17 @ 17:00 UTC
(6 hours ago)
Jan-17 @ 18:00 UTC
(5 hours ago)
Jan-19 @ 00:00 UTC
(-1 days ago)
Jan-17 @ 18:00 to Jan-19 @ 00:00
TAF HELX 171700Z 1718/1824 35005G15KT 6000 NSC
Wind Visibility Clouds
350° at 5 knots
 Gusting to 15 knots
6,003 meters
  • No significant clouds
Expired Click to View Jan-17 @ 18:00 to Jan-17 @ 20:00
TEMPO 1718/1720 VRB03KT 3000 HZ
Wind Visibility Conditions
Variable at 3 knots 2,993 meters
  • Haze
TAF HELX 171700Z 1718/1824 35005G15KT 6000 NSC TEMPO 1718/1720 VRB03KT 3000 HZ
Issued Jan-17 @ 17:00 UTC
(6 hours ago)
Valid From Jan-17 @ 18:00 UTC
(5 hours ago)
Valid To Jan-19 @ 00:00 UTC
(-1 days ago)
Jan-17 @ 18:00 - Jan-19 @ 00:00
Wind Visibility
350° at 5 knots
 Gusting to 15 knots
6,003 meters
Clouds
  • No significant clouds
Jan-17 @ 18:00 - Jan-17 @ 20:00
Wind Visibility
Variable at 3 knots 2,993 meters
Conditions
  • Haze